Time;durP1;ratioP1;P1;durP2;ratioP2;P2;SDS_P1;SDS_P2;PMS_P1;PMS_P2;Temp;Humidity;BMP_temperature;BMP_pressure;BME280_temperature;BME280_humidity;BME280_pressure;Samples;Min_cycle;Max_cycle;Signal;HPM_P1;HPM_P2
2022/05/03 00:34:26;;;;;;;7.78;6.05;;;;;;;8.11;69.52;101722.91;6426230;22;20028;-86
2022/05/03 01:06:10;;;;;;;7.40;5.05;;;;;;;7.70;70.42;101720.63;6438179;22;20027;-85
2022/05/03 01:09:46;;;;;;;;;;;;;;;;;;;;;
2022/05/03 01:16:25;;;;;;;8.63;5.60;;;;;;;7.40;71.71;101719.31;6407128;23;20014;-86
2022/05/03 01:23:13;;;;;;;;;;;;;;;;;;;;;
2022/05/03 02:36:13;;;;;;;8.63;5.88;;;;;;;6.01;77.42;101703.88;6502008;22;20024;-82
2022/05/03 02:42:31;;;;;;;9.38;5.95;;;;;;;5.95;77.33;101688.19;6501743;23;20012;-86
2022/05/03 02:45:18;;;;;;;7.93;6.38;;;;;;;5.98;77.96;101702.09;6508823;23;20000;-84
2022/05/03 02:48:16;;;;;;;9.70;6.32;;;;;;;6.03;77.33;101707.38;6508785;23;20010;-85
2022/05/03 02:50:55;;;;;;;8.68;5.38;;;;;;;6.10;77.61;101714.44;6506594;23;20027;-84
2022/05/03 02:53:33;;;;;;;8.93;5.90;;;;;;;6.02;77.26;101701.34;6510630;23;20705;-84
2022/05/03 02:56:16;;;;;;;9.38;5.50;;;;;;;5.88;77.46;101710.50;6484581;23;20078;-85
2022/05/03 02:58:58;;;;;;;7.07;5.80;;;;;;;5.97;77.53;101710.72;6482429;23;20008;-86
2022/05/03 03:01:48;;;;;;;7.30;5.65;;;;;;;5.93;77.56;101715.75;6502551;23;20649;-88
2022/05/03 03:04:43;;;;;;;11.48;5.43;;;;;;;5.89;77.42;101712.22;6501259;23;20032;-83
2022/05/03 03:07:18;;;;;;;9.93;5.43;;;;;;;5.78;77.61;101716.28;6500248;23;20016;-84
2022/05/03 03:09:58;;;;;;;8.68;5.22;;;;;;;5.87;77.68;101708.72;6499299;23;19996;-85
2022/05/03 03:12:52;;;;;;;8.75;5.25;;;;;;;5.74;77.90;101712.75;6500466;23;20012;-84
2022/05/03 03:15:28;;;;;;;8.50;5.78;;;;;;;5.68;78.53;101709.16;6372766;23;20006;-84
2022/05/03 03:18:06;;;;;;;11.60;5.68;;;;;;;5.62;78.15;101702.16;6372751;23;20081;-85
2022/05/03 03:20:46;;;;;;;10.75;6.40;;;;;;;5.73;78.03;101707.56;6372550;23;20010;-83
2022/05/03 03:23:20;;;;;;;9.07;5.22;;;;;;;5.58;78.33;101708.09;6372292;23;20013;-86
2022/05/03 03:25:53;;;;;;;8.77;5.85;;;;;;;5.55;78.63;101701.13;6372975;23;20017;-84
2022/05/03 03:28:28;;;;;;;9.45;5.70;;;;;;;5.44;78.98;101695.72;6372436;23;20523;-85
2022/05/03 03:31:02;;;;;;;8.13;5.95;;;;;;;5.58;78.50;101710.69;6347555;23;20194;-84
2022/05/03 03:33:41;;;;;;;7.82;5.82;;;;;;;5.47;79.11;101707.84;6375652;23;20020;-86
2022/05/03 03:39:46;;;;;;;7.85;6.28;;;;;;;5.43;78.76;101711.22;6316497;23;20023;-87
2022/05/03 03:45:00;;;;;;;6.13;5.28;;;;;;;5.33;78.89;101689.44;6439705;23;20033;-87
2022/05/03 03:47:44;;;;;;;7.72;6.30;;;;;;;5.51;78.14;101698.47;6438836;23;20012;-85
2022/05/03 03:50:15;;;;;;;6.57;5.65;;;;;;;5.50;78.36;101700.16;6438374;23;20001;-85
2022/05/03 03:52:55;;;;;;;8.23;5.00;;;;;;;5.53;77.46;101697.63;6438870;23;20479;-86
2022/05/03 03:55:45;;;;;;;9.40;5.80;;;;;;;5.42;78.03;101693.94;6438751;23;20005;-86
2022/05/03 03:58:49;;;;;;;6.55;5.30;;;;;;;5.41;77.65;101698.25;6440704;23;20064;-85
2022/05/03 04:08:13;;;;;;;7.95;5.32;;;;;;;5.42;77.80;101705.13;6495522;22;20362;-85
2022/05/03 04:10:56;;;;;;;6.80;6.03;;;;;;;5.39;78.09;101702.47;6502009;23;20063;-86
2022/05/03 04:24:10;;;;;;;8.70;5.93;;;;;;;5.25;78.24;101696.16;6502342;23;20403;-86
2022/05/03 04:32:57;;;;;;;10.55;6.40;;;;;;;5.41;78.28;101718.94;6513920;22;20028;-87
2022/05/03 04:35:34;;;;;;;7.47;5.80;;;;;;;5.36;78.11;101707.63;6514796;23;20026;-86
2022/05/03 04:38:17;;;;;;;8.82;6.10;;;;;;;5.36;78.98;101714.47;6488840;23;20015;-86
2022/05/03 04:41:23;;;;;;;8.50;6.18;;;;;;;5.37;78.81;101713.66;6488901;23;19988;-86
2022/05/03 04:43:56;;;;;;;8.68;6.03;;;;;;;5.33;79.29;101710.13;6516021;23;20019;-87
2022/05/03 04:46:36;;;;;;;;;;;;;;;5.41;77.37;101720.63;6489186;23;20381;-87
2022/05/03 04:49:23;;;;;;;11.23;6.20;;;;;;;5.34;78.77;101717.03;6494067;23;19915;-86
2022/05/03 04:51:55;;;;;;;7.43;6.05;;;;;;;5.41;78.37;101716.34;6488433;22;20016;-85
2022/05/03 04:54:42;;;;;;;9.30;5.90;;;;;;;5.45;78.85;101723.31;6451069;23;20012;-87
2022/05/03 05:00:56;;;;;;;9.93;6.85;;;;;;;5.55;78.90;101736.47;6481762;22;20012;-86
2022/05/03 05:03:29;;;;;;;;;;;;;;;5.58;77.18;101732.22;6486815;23;20063;-85
2022/05/03 05:09:28;;;;;;;9.18;7.00;;;;;;;5.58;78.73;101719.31;6488247;23;19996;-84
2022/05/03 05:12:28;;;;;;;9.90;7.50;;;;;;;5.69;78.95;101736.81;6483792;23;20005;-84
2022/05/03 05:15:05;;;;;;;8.80;6.82;;;;;;;5.64;79.04;101716.00;6481627;23;20329;-86
2022/05/03 05:24:50;;;;;;;12.82;7.68;;;;;;;5.76;79.43;101725.72;6473666;23;20016;-85
2022/05/03 05:27:28;;;;;;;10.73;7.35;;;;;;;5.99;78.56;101747.00;6470805;23;20025;-85
2022/05/03 05:30:54;;;;;;;11.50;7.07;;;;;;;5.94;79.37;101736.50;6471415;23;20024;-85
2022/05/03 05:33:43;;;;;;;9.35;7.90;;;;;;;6.00;79.11;101738.38;6472200;23;20024;-85
2022/05/03 05:36:33;;;;;;;12.55;7.43;;;;;;;6.08;79.15;101747.16;6472852;23;20088;-86
2022/05/03 05:39:05;;;;;;;10.55;7.25;;;;;;;6.14;79.22;101756.78;6474367;23;20009;-86
2022/05/03 05:41:59;;;;;;;9.70;8.53;;;;;;;6.24;78.75;101756.13;6474184;23;19997;-85
2022/05/03 05:47:58;;;;;;;10.02;7.57;;;;;;;6.33;78.28;101760.63;6478752;23;20017;-85
2022/05/03 05:50:42;;;;;;;8.03;7.13;;;;;;;6.37;77.88;101744.31;6485366;23;20080;-85
2022/05/03 05:56:44;;;;;;;11.40;7.45;;;;;;;6.51;77.89;101753.22;6495242;22;20016;-86
2022/05/03 05:59:43;;;;;;;10.43;7.93;;;;;;;6.66;77.61;101770.75;6496498;22;20036;-85
2022/05/03 06:02:24;;;;;;;8.73;7.03;;;;;;;6.70;77.62;101756.19;6497012;22;19993;-86
2022/05/03 06:08:29;;;;;;;8.85;7.43;;;;;;;6.91;77.37;101771.25;6459969;23;20114;-86
2022/05/03 06:11:32;;;;;;;11.25;8.02;;;;;;;6.99;76.62;101772.25;6417817;23;20009;-86
2022/05/03 06:14:05;;;;;;;10.10;7.37;;;;;;;7.06;76.17;101766.31;6441995;23;20084;-85
2022/05/03 06:17:23;;;;;;;12.18;8.70;;;;;;;7.15;75.74;101773.41;6449679;23;20004;-87
2022/05/03 06:19:54;;;;;;;9.82;7.22;;;;;;;7.22;74.80;101767.47;6459230;23;20036;-86
2022/05/03 06:33:17;;;;;;;13.57;8.30;;;;;;;7.84;72.08;101789.16;6438152;23;20028;-86
2022/05/03 06:36:15;;;;;;;;;;;;;;;7.92;72.05;101779.78;6439183;23;20013;-85
2022/05/03 06:39:14;;;;;;;8.55;6.45;;;;;;;8.12;71.50;101768.81;6440016;23;20310;-85
2022/05/03 06:41:45;;;;;;;11.55;7.28;;;;;;;8.21;69.16;101751.59;6415440;23;20009;-86
2022/05/03 06:47:18;;;;;;;8.70;5.90;;;;;;;8.56;68.42;101761.59;6481138;23;20028;-85
2022/05/03 06:50:26;;;;;;;9.57;6.82;;;;;;;8.84;66.12;101777.47;6448805;23;20036;-86
2022/05/03 06:54:08;;;;;;;9.57;5.70;;;;;;;9.01;65.94;101775.03;6443404;23;20012;-85
2022/05/03 06:57:07;;;;;;;10.77;5.80;;;;;;;9.18;63.89;101779.53;6464209;23;20008;-85
2022/05/03 06:59:54;;;;;;;7.68;5.28;;;;;;;9.28;62.47;101771.78;6444893;23;20008;-85
2022/05/03 07:02:36;;;;;;;7.15;5.15;;;;;;;9.46;60.55;101772.81;6470882;23;20043;-85
2022/05/03 07:05:39;;;;;;;7.53;5.05;;;;;;;9.75;60.61;101783.44;6445744;23;20005;-87
2022/05/03 07:08:19;;;;;;;10.18;4.25;;;;;;;9.84;55.73;101783.50;6445916;23;20012;-88
2022/05/03 07:11:25;;;;;;;6.10;4.78;;;;;;;10.01;56.39;101786.22;6473676;23;20008;-86
2022/05/03 07:14:15;;;;;;;7.68;4.43;;;;;;;10.17;55.56;101784.53;6469639;23;20011;-86
2022/05/03 07:24:35;;;;;;;5.75;4.35;;;;;;;10.76;52.99;101784.81;6469623;23;20020;-86
2022/05/03 07:27:28;;;;;;;6.05;4.13;;;;;;;10.89;50.81;101790.91;6443129;23;20095;-84
2022/05/03 07:37:02;;;;;;;4.85;3.10;;;;;;;11.22;46.66;101799.66;6471722;23;20020;-85
2022/05/03 07:39:52;;;;;;;6.95;3.03;;;;;;;11.41;45.80;101792.69;6470168;23;20087;-87
2022/05/03 07:46:11;;;;;;;5.55;2.55;;;;;;;11.61;43.65;101790.94;6470928;22;20020;-86
2022/05/03 07:48:43;;;;;;;5.93;3.05;;;;;;;11.62;43.20;101784.88;6468777;23;20108;-87
2022/05/03 07:51:17;;;;;;;;;;;;;;;11.84;42.72;101790.91;6470015;23;20001;-88
2022/05/03 07:53:50;;;;;;;;;;;;;;;11.94;43.46;101791.78;6472102;23;19946;-88
2022/05/03 07:56:21;;;;;;;5.97;3.30;;;;;;;11.90;43.07;101774.38;6446599;23;20436;-88
2022/05/03 07:58:57;;;;;;;5.27;3.37;;;;;;;12.18;43.89;101780.41;6446026;23;20005;-87
2022/05/03 08:01:39;;;;;;;4.65;3.20;;;;;;;12.32;43.69;101785.59;6459627;23;20016;-88
2022/05/03 08:04:11;;;;;;;8.75;3.88;;;;;;;12.58;45.10;101782.84;6451910;23;20031;-87
2022/05/03 08:06:46;;;;;;;5.47;3.42;;;;;;;12.51;42.88;101790.72;6448741;23;20019;-87
2022/05/03 08:10:06;;;;;;;6.90;3.63;;;;;;;12.69;43.41;101793.25;6459910;23;20020;-86
2022/05/03 08:12:51;;;;;;;5.50;3.40;;;;;;;12.63;43.13;101774.97;6461456;23;20004;-85
2022/05/03 08:15:32;;;;;;;9.98;3.60;;;;;;;12.89;43.38;101787.88;6462325;23;20005;-88
2022/05/03 08:18:04;;;;;;;5.95;3.40;;;;;;;13.00;41.96;101793.06;6491895;23;20007;-84
2022/05/03 08:20:36;;;;;;;13.13;4.07;;;;;;;13.12;42.15;101793.00;6488681;23;19989;-87
2022/05/03 08:23:20;;;;;;;5.47;4.03;;;;;;;13.38;42.43;101798.91;6487844;23;20019;-83
2022/05/03 08:25:51;;;;;;;5.00;3.90;;;;;;;13.31;41.45;101801.56;6460244;23;20035;-89
2022/05/03 08:28:23;;;;;;;10.43;4.43;;;;;;;13.43;41.55;101803.25;6487424;23;20009;-85
2022/05/03 08:30:54;;;;;;;4.77;3.87;;;;;;;13.55;42.24;101802.25;6486068;23;20022;-84
2022/05/03 08:33:26;;;;;;;8.20;4.50;;;;;;;13.65;42.71;101806.56;6489527;23;20005;-88
2022/05/03 08:35:57;;;;;;;9.60;5.05;;;;;;;13.78;42.32;101807.31;6461517;23;19997;-86
2022/05/03 08:44:12;;;;;;;7.10;5.68;;;;;;;14.12;42.60;101795.56;6476641;23;20025;-88
2022/05/03 08:46:45;;;;;;;8.48;5.65;;;;;;;14.22;42.86;101799.84;6447959;23;20024;-87
2022/05/03 08:49:18;;;;;;;7.70;5.43;;;;;;;14.49;42.71;101803.88;6474940;23;20011;-88
2022/05/03 08:51:51;;;;;;;;;;;;;;;14.72;43.10;101802.75;6449134;23;20373;-87
2022/05/03 08:54:29;;;;;;;10.35;5.20;;;;;;;14.72;43.38;101806.22;6473707;23;19908;-88
2022/05/03 08:57:06;;;;;;;9.63;6.00;;;;;;;14.71;43.30;101806.25;6450004;23;20335;-87
2022/05/03 08:59:38;;;;;;;9.40;6.35;;;;;;;14.77;42.95;101812.28;6447412;23;20043;-88
2022/05/03 09:02:14;;;;;;;8.80;5.40;;;;;;;14.87;44.02;101794.63;6472234;23;20000;-90
2022/05/03 09:07:51;;;;;;;6.80;6.05;;;;;;;15.02;44.14;101804.06;6376485;23;20017;-89
2022/05/03 09:10:37;;;;;;;8.55;5.78;;;;;;;15.10;43.46;101803.94;6379708;23;20074;-89
2022/05/03 09:16:27;;;;;;;9.50;6.90;;;;;;;15.45;43.40;101797.25;6486224;22;20038;-89
2022/05/03 09:19:39;;;;;;;7.57;5.85;;;;;;;15.67;43.17;101795.97;6498740;22;20048;-89
2022/05/03 09:25:13;;;;;;;9.27;6.07;;;;;;;15.81;44.52;101808.91;6505653;23;20019;-89
2022/05/03 09:28:13;;;;;;;10.07;6.45;;;;;;;15.81;42.87;101813.28;6505687;23;20008;-87
2022/05/03 09:30:56;;;;;;;10.00;6.10;;;;;;;15.74;43.62;101809.00;6505269;23;20004;-88
2022/05/03 09:33:38;;;;;;;7.68;6.18;;;;;;;15.41;43.53;101790.31;6477259;23;20000;-87
2022/05/03 09:36:51;;;;;;;8.83;5.77;;;;;;;16.63;43.38;101802.03;6477737;23;20134;-88
2022/05/03 09:39:43;;;;;;;8.87;6.03;;;;;;;18.49;40.20;101788.50;6477310;23;20243;-88
2022/05/03 09:42:30;;;;;;;10.65;7.22;;;;;;;20.52;36.70;101787.84;6479308;23;20452;-90
2022/05/03 09:45:13;;;;;;;;;;;;;;;;;;;;;
2022/05/03 09:47:52;;;;;;;8.10;6.03;;;;;;;21.16;34.11;101804.81;6478686;23;20087;-87
2022/05/03 09:50:50;;;;;;;10.65;5.47;;;;;;;21.27;33.53;101805.22;6505887;23;20065;-89
2022/05/03 09:53:28;;;;;;;7.05;5.57;;;;;;;21.78;32.84;101801.31;6471064;23;20027;-88
2022/05/03 09:56:42;;;;;;;8.27;5.85;;;;;;;20.76;32.67;101800.16;6469468;23;20114;-88
2022/05/03 09:59:32;;;;;;;8.75;5.82;;;;;;;21.79;33.00;101803.00;6468916;23;20012;-89
2022/05/03 10:02:20;;;;;;;9.80;5.85;;;;;;;22.60;31.56;101797.59;6445815;23;20009;-88
2022/05/03 10:05:11;;;;;;;7.05;5.28;;;;;;;23.11;31.18;101796.06;6446472;23;20012;-88
2022/05/03 10:07:45;;;;;;;11.05;6.28;;;;;;;22.82;30.02;101800.09;6444874;23;20008;-88
2022/05/03 10:10:20;;;;;;;6.97;5.80;;;;;;;23.25;29.46;101784.72;6445890;23;20008;-88
2022/05/03 10:12:58;;;;;;;6.65;5.15;;;;;;;22.33;30.90;101787.34;6444973;23;20016;-88
2022/05/03 10:22:12;;;;;;;6.88;5.43;;;;;;;24.48;29.16;101781.84;6482561;23;20008;-89
2022/05/03 10:25:24;;;;;;;9.38;6.43;;;;;;;24.15;28.59;101777.44;6478792;23;20844;-89
2022/05/03 10:30:38;;;;;;;8.77;6.10;;;;;;;24.46;28.27;101773.94;6441504;23;20036;-87
2022/05/03 10:33:20;;;;;;;9.95;6.78;;;;;;;24.32;28.08;101776.53;6409287;23;20516;-85
2022/05/03 10:35:52;;;;;;;7.35;6.65;;;;;;;23.00;29.30;101776.22;6441619;23;20008;-84
2022/05/03 10:42:02;;;;;;;9.45;6.18;;;;;;;24.79;27.69;101772.16;6502098;22;20110;-87
2022/05/03 10:45:03;;;;;;;8.65;5.93;;;;;;;23.30;28.69;101769.41;6503395;23;20020;-87
2022/05/03 10:48:03;;;;;;;8.52;4.88;;;;;;;25.45;28.58;101773.66;6476174;23;20008;-89
2022/05/03 10:50:36;;;;;;;6.20;5.60;;;;;;;24.48;26.96;101763.19;6503582;23;20012;-89
2022/05/03 10:53:07;;;;;;;7.68;6.70;;;;;;;24.45;27.36;101763.38;6475564;23;20015;-88
2022/05/03 10:56:16;;;;;;;11.38;6.18;;;;;;;24.22;27.98;101765.50;6473811;23;20016;-86
2022/05/03 10:59:21;;;;;;;8.25;5.95;;;;;;;24.74;29.52;101762.59;6505523;23;20012;-88
2022/05/03 11:02:07;;;;;;;6.22;5.47;;;;;;;24.93;27.85;101759.75;6473713;23;20797;-87
2022/05/03 11:05:28;;;;;;;7.10;6.40;;;;;;;25.06;27.56;101759.03;6501332;23;20092;-87
2022/05/03 11:08:17;;;;;;;8.82;6.00;;;;;;;26.85;26.85;101737.28;6500958;23;20020;-87
2022/05/03 11:10:51;;;;;;;5.80;5.30;;;;;;;25.43;26.24;101752.38;6500531;23;20070;-87
2022/05/03 11:13:46;;;;;;;8.77;6.10;;;;;;;23.01;29.72;101752.22;6475369;23;20087;-87
2022/05/03 11:16:26;;;;;;;7.97;6.05;;;;;;;20.63;33.43;101747.69;6373046;23;20051;-86
2022/05/03 11:18:58;;;;;;;8.23;6.53;;;;;;;20.64;34.88;101747.69;6374173;23;20580;-85
2022/05/03 11:25:08;;;;;;;7.22;5.97;;;;;;;26.26;26.83;101726.84;6378728;23;20053;-86
2022/05/03 11:27:58;;;;;;;8.88;6.80;;;;;;;28.52;24.72;101734.59;6358570;23;20009;-87
2022/05/03 11:30:30;;;;;;;6.28;5.68;;;;;;;27.84;23.59;101739.47;6372777;23;20014;-87
2022/05/03 11:33:09;;;;;;;9.57;5.50;;;;;;;26.16;26.43;101735.47;6371595;23;20020;-84
2022/05/03 11:35:47;;;;;;;7.70;7.00;;;;;;;24.00;28.85;101726.72;6369035;23;20020;-86
2022/05/03 11:38:18;;;;;;;8.30;5.78;;;;;;;23.28;30.07;101734.03;6385743;23;20014;-87
2022/05/03 11:41:04;;;;;;;9.73;6.32;;;;;;;25.21;29.20;101722.56;6353285;23;20052;-86
2022/05/03 11:43:36;;;;;;;7.68;5.68;;;;;;;27.38;25.32;101714.06;6352720;23;20337;-87
2022/05/03 11:46:10;;;;;;;8.98;6.00;;;;;;;27.67;24.45;101721.91;6373928;23;20005;-86
2022/05/03 11:49:01;;;;;;;5.43;4.75;;;;;;;27.33;24.47;101716.22;6372287;23;20155;-86
2022/05/03 11:57:36;;;;;;;9.55;6.35;;;;;;;22.52;32.11;101705.00;6440910;23;20025;-85
2022/05/03 12:00:20;;;;;;;8.25;6.25;;;;;;;22.55;32.52;101707.47;6403703;23;20020;-87
2022/05/03 12:03:00;;;;;;;8.93;6.35;;;;;;;21.40;33.20;101697.69;6403418;23;20092;-88
2022/05/03 12:05:31;;;;;;;12.27;5.97;;;;;;;20.47;34.29;101697.97;6379217;23;20006;-86
2022/05/03 12:08:29;;;;;;;6.45;5.85;;;;;;;20.47;35.31;101705.91;6402675;23;20032;-86
2022/05/03 12:11:19;;;;;;;8.80;6.32;;;;;;;20.96;35.12;101703.06;6402075;23;20018;-87
2022/05/03 12:14:05;;;;;;;6.53;5.70;;;;;;;20.66;34.52;101705.22;6378264;23;20041;-87
2022/05/03 12:17:04;;;;;;;13.15;5.82;;;;;;;19.89;35.77;101689.66;6378135;23;20013;-87
2022/05/03 12:20:00;;;;;;;7.20;4.50;;;;;;;20.29;34.90;101685.47;6403571;23;20017;-88
2022/05/03 12:23:08;;;;;;;9.25;4.90;;;;;;;20.61;34.51;101678.88;6404205;23;20452;-87
2022/05/03 12:25:42;;;;;;;5.97;4.80;;;;;;;20.29;35.00;101677.53;6382861;23;20024;-86
2022/05/03 12:28:17;;;;;;;7.93;4.80;;;;;;;20.75;35.49;101673.91;6411246;23;20084;-85
2022/05/03 12:30:56;;;;;;;7.15;5.65;;;;;;;20.90;35.28;101680.34;6422471;23;20005;-85
2022/05/03 12:34:02;;;;;;;6.88;5.13;;;;;;;21.96;34.25;101671.31;6443646;23;20013;-85
2022/05/03 12:36:36;;;;;;;8.23;4.88;;;;;;;21.92;34.78;101665.28;6449731;23;20036;-85
2022/05/03 12:39:34;;;;;;;5.55;4.68;;;;;;;21.47;35.04;101671.75;6451434;23;20015;-84
2022/05/03 12:42:25;;;;;;;6.43;5.47;;;;;;;21.26;35.20;101669.09;6454130;23;20013;-83
2022/05/03 12:44:57;;;;;;;6.93;5.43;;;;;;;20.70;35.46;101673.22;6444873;23;20009;-86
2022/05/03 12:47:28;;;;;;;8.38;5.75;;;;;;;20.30;36.23;101672.19;6444278;23;20084;-85
2022/05/03 12:50:00;;;;;;;9.97;7.20;;;;;;;20.31;36.58;101671.22;6441550;23;20063;-85
2022/05/03 12:52:36;;;;;;;10.40;6.43;;;;;;;20.44;37.22;101662.81;6442905;23;20083;-86
2022/05/03 12:55:11;;;;;;;8.55;6.65;;;;;;;20.37;36.99;101656.91;6441207;23;20009;-86
2022/05/03 13:00:36;;;;;;;8.23;6.65;;;;;;;20.64;36.57;101660.25;6441832;23;20424;-86
2022/05/03 13:03:10;;;;;;;8.43;6.60;;;;;;;21.66;35.48;101650.59;6446933;23;20001;-86
2022/05/03 13:05:42;;;;;;;8.48;7.07;;;;;;;21.63;35.08;101651.56;6424150;23;20024;-85
2022/05/03 13:08:23;;;;;;;8.23;5.90;;;;;;;22.81;33.56;101646.84;6427230;23;20001;-86
2022/05/03 13:11:00;;;;;;;7.00;6.10;;;;;;;23.70;32.63;101651.13;6455536;23;20005;-86
2022/05/03 13:13:32;;;;;;;9.40;7.20;;;;;;;23.33;32.19;101650.44;6455706;23;19988;-84
2022/05/03 13:16:06;;;;;;;7.23;6.23;;;;;;;23.21;32.43;101639.53;6429096;23;20028;-86
2022/05/03 13:18:38;;;;;;;8.65;6.60;;;;;;;24.94;30.02;101648.59;6439955;23;19990;-86
2022/05/03 13:21:18;;;;;;;7.73;6.13;;;;;;;26.65;27.91;101650.38;6450939;23;20067;-88
2022/05/03 13:23:50;;;;;;;12.02;6.38;;;;;;;25.21;27.82;101637.19;6444992;23;20241;-86
2022/05/03 13:26:37;;;;;;;6.82;5.32;;;;;;;25.71;28.27;101632.34;6442554;23;20009;-86
2022/05/03 13:29:14;;;;;;;5.75;5.10;;;;;;;25.09;28.78;101634.31;6414867;23;20012;-86
2022/05/03 13:31:51;;;;;;;7.55;5.53;;;;;;;24.92;28.50;101645.16;6444172;23;20008;-86
2022/05/03 13:34:26;;;;;;;5.72;5.05;;;;;;;24.55;28.71;101636.63;6418416;23;20008;-87
2022/05/03 13:42:38;;;;;;;10.23;7.03;;;;;;;23.28;32.09;101632.94;6494420;23;20251;-87
2022/05/03 13:45:10;;;;;;;8.50;7.22;;;;;;;23.12;32.39;101637.38;6494196;22;20008;-87
2022/05/03 13:47:42;;;;;;;10.45;8.60;;;;;;;21.53;35.17;101621.09;6518599;23;20019;-86
2022/05/03 13:50:27;;;;;;;10.45;9.45;;;;;;;21.58;35.90;101628.84;6479496;23;20000;-86
2022/05/03 13:53:14;;;;;;;10.73;8.70;;;;;;;21.43;36.65;101631.22;6475995;23;20011;-86
2022/05/03 13:55:46;;;;;;;9.50;8.60;;;;;;;21.11;36.62;101640.63;6476384;23;20095;-86
2022/05/03 13:58:18;;;;;;;10.13;9.17;;;;;;;20.81;37.94;101624.25;6502937;23;20035;-87
2022/05/03 14:01:30;;;;;;;14.35;9.88;;;;;;;21.41;36.97;101637.53;6472309;22;20030;-88
2022/05/03 14:04:02;;;;;;;9.77;8.60;;;;;;;21.13;37.19;101631.66;6455189;23;20091;-88
2022/05/03 14:06:42;;;;;;;9.68;8.32;;;;;;;21.91;36.74;101636.16;6508971;23;20083;-87
2022/05/03 14:09:23;;;;;;;8.50;7.70;;;;;;;22.66;35.49;101624.56;6508051;23;19996;-88
2022/05/03 14:11:58;;;;;;;9.57;8.57;;;;;;;21.22;35.49;101640.13;6507111;23;20000;-87
2022/05/03 14:14:48;;;;;;;10.10;8.85;;;;;;;21.02;35.74;101623.31;6510272;23;19996;-87
2022/05/03 14:17:23;;;;;;;10.80;7.65;;;;;;;20.76;35.91;101625.28;6480223;23;20008;-86
2022/05/03 14:19:54;;;;;;;11.25;8.57;;;;;;;21.24;35.62;101625.03;6480569;23;20023;-88
2022/05/03 14:22:31;;;;;;;11.33;10.13;;;;;;;21.26;35.28;101628.47;6475526;23;20010;-89
2022/05/03 14:25:16;;;;;;;17.98;15.27;;;;;;;21.06;39.45;101629.34;6501632;23;20070;-88
2022/05/03 14:27:48;;;;;;;26.80;24.05;;;;;;;20.43;42.79;101632.84;6500656;23;20008;-87
2022/05/03 14:30:26;;;;;;;25.70;23.20;;;;;;;20.46;44.13;101639.78;6501035;23;20000;-87
2022/05/03 14:33:14;;;;;;;27.67;24.77;;;;;;;20.99;43.13;101633.19;6501186;23;20079;-86
2022/05/03 15:07:18;;;;;;;25.23;22.45;;;;;;;24.65;36.97;101643.19;6469372;23;20021;-87
2022/05/03 15:10:15;;;;;;;25.80;22.90;;;;;;;23.53;38.54;101642.28;6470237;23;20100;-88
2022/05/03 15:12:46;;;;;;;25.65;23.15;;;;;;;21.97;41.29;101641.19;6468094;23;20391;-87
2022/05/03 15:15:56;;;;;;;24.90;22.30;;;;;;;22.25;40.97;101642.53;6468240;23;20062;-86
2022/05/03 15:19:11;;;;;;;25.80;22.95;;;;;;;21.40;42.47;101641.97;6466400;23;20079;-87
2022/05/03 15:21:54;;;;;;;23.65;21.15;;;;;;;21.61;41.87;101634.88;6466854;23;20013;-87
2022/05/03 15:31:46;;;;;;;29.20;21.65;;;;;;;22.90;40.84;101646.41;6501354;22;20027;-87
2022/05/03 15:38:14;;;;;;;24.88;21.73;;;;;;;22.31;41.22;101650.25;6311580;23;20011;-87
2022/05/03 15:45:30;;;;;;;23.02;20.08;;;;;;;25.41;35.65;101641.34;6436928;23;20100;-87
2022/05/03 15:48:13;;;;;;;24.75;19.98;;;;;;;25.39;35.13;101625.44;6437143;23;20023;-86
2022/05/03 16:15:27;;;;;;;26.80;19.30;;;;;;;19.80;45.41;101641.44;6423492;22;20036;-87
2022/05/03 16:21:38;;;;;;;;;;;;;;;;;;;;;
2022/05/03 16:25:09;;;;;;;21.33;18.58;;;;;;;19.60;46.11;101626.28;6467953;23;20097;-87
2022/05/03 16:35:24;;;;;;;20.70;17.60;;;;;;;18.70;48.46;101641.72;6502628;23;20024;-86
2022/05/03 16:46:51;;;;;;;25.52;19.00;;;;;;;17.45;53.06;101641.97;6469167;22;20028;-86
2022/05/03 16:49:22;;;;;;;20.02;17.63;;;;;;;17.88;52.11;101639.94;6510703;23;20068;-87
2022/05/03 16:51:58;;;;;;;19.77;17.13;;;;;;;17.70;53.11;101639.53;6483811;23;20030;-86
2022/05/03 16:54:38;;;;;;;23.70;17.70;;;;;;;17.57;53.60;101644.28;6508939;23;20075;-88
2022/05/03 16:57:53;;;;;;;27.10;19.42;;;;;;;17.36;54.23;101652.78;6505474;23;20004;-85
2022/05/03 17:00:33;;;;;;;24.63;18.23;;;;;;;16.97;55.06;101643.28;6501145;23;20074;-86
2022/05/03 17:14:27;;;;;;;26.27;18.13;;;;;;;16.06;58.69;101658.53;6468598;22;20084;-87
2022/05/03 17:17:41;;;;;;;26.70;18.90;;;;;;;15.52;60.84;101657.00;6468267;22;20043;-86
2022/05/03 17:20:30;;;;;;;25.67;19.15;;;;;;;15.29;60.68;101646.91;6474751;23;20023;-86
2022/05/03 17:37:34;;;;;;;23.52;17.80;;;;;;;15.55;60.50;101669.19;6437897;22;20024;-86
2022/05/03 17:48:37;;;;;;;23.05;16.75;;;;;;;14.61;62.88;101655.94;6521793;22;20114;-87
2022/05/03 17:54:37;;;;;;;24.23;18.30;;;;;;;14.68;63.24;101669.81;6460747;22;20024;-85
2022/05/03 17:57:50;;;;;;;24.40;18.35;;;;;;;14.31;64.70;101672.97;6479589;23;20028;-87
2022/05/03 18:10:48;;;;;;;23.98;16.08;;;;;;;14.47;62.53;101655.25;6461259;22;20028;-88
2022/05/03 18:16:44;;;;;;;25.85;16.60;;;;;;;14.47;63.15;101669.22;6514042;22;20028;-88
2022/05/03 18:19:57;;;;;;;23.52;16.80;;;;;;;14.30;63.56;101676.50;6453316;22;20087;-86
2022/05/03 19:35:22;;;;;;;23.20;11.73;;;;;;;12.39;67.87;101702.75;6399368;23;20067;-82
2022/05/03 19:38:28;;;;;;;;;;;;;;;;;;;;;
2022/05/03 19:41:04;;;;;;;21.63;9.48;;;;;;;11.89;67.23;101702.06;6401055;23;20093;-84
2022/05/03 19:44:09;;;;;;;;;;;;;;;;;;;;;
2022/05/03 19:47:19;;;;;;;18.45;7.90;;;;;;;11.95;66.59;101720.38;6401422;23;20084;-84
2022/05/03 19:54:38;;;;;;;;;;;;;;;;;;;;;
2022/05/03 23:58:35;;;;;;;;;;;;;;;;;;;;;
